Time;durP1;ratioP1;P1;durP2;ratioP2;P2;SDS_P1;SDS_P2;PMS_P1;PMS_P2;Temp;Humidity;BMP_temperature;BMP_pressure;BME280_temperature;BME280_humidity;BME280_pressure;Samples;Min_cycle;Max_cycle;Signal;HPM_P1;HPM_P2
2023/05/01 00:00:13;;;;;;;11.50;5.25;;;8.00;99.90;;;;;;5062270;28;20045;-47
2023/05/01 00:02:39;;;;;;;14.73;5.20;;;7.80;99.90;;;;;;5062756;28;20123;-46
2023/05/01 00:05:06;;;;;;;17.27;5.20;;;7.80;99.90;;;;;;5061681;28;20045;-44
2023/05/01 00:07:32;;;;;;;10.43;4.95;;;7.90;99.90;;;;;;5061882;28;20056;-45
2023/05/01 00:09:58;;;;;;;8.70;4.90;;;9.90;99.90;;;;;;5062574;28;20056;-50
2023/05/01 00:12:24;;;;;;;10.80;4.85;;;7.80;99.90;;;;;;5061861;28;20123;-48
2023/05/01 00:14:50;;;;;;;9.93;4.50;;;8.70;99.90;;;;;;5061871;28;20124;-48
2023/05/01 00:17:16;;;;;;;11.45;4.97;;;7.70;99.90;;;;;;5062097;28;20052;-44
2023/05/01 00:19:42;;;;;;;12.13;5.15;;;7.40;99.90;;;;;;5044097;28;20114;-47
2023/05/01 00:22:07;;;;;;;10.90;4.65;;;7.60;99.90;;;;;;5062101;28;20052;-46
2023/05/01 00:24:33;;;;;;;8.60;4.70;;;7.60;99.90;;;;;;5062090;28;20512;-45
2023/05/01 00:26:59;;;;;;;11.68;5.05;;;7.50;99.90;;;;;;5044070;28;20501;-49
2023/05/01 00:29:25;;;;;;;8.02;4.53;;;7.60;99.90;;;;;;5061763;28;20408;-43
2023/05/01 00:31:50;;;;;;;8.00;5.25;;;7.70;99.90;;;;;;5044338;28;20048;-47
2023/05/01 00:34:16;;;;;;;10.50;4.75;;;7.60;99.90;;;;;;5061447;28;20041;-49
2023/05/01 00:36:42;;;;;;;10.07;4.75;;;7.50;99.90;;;;;;5062085;28;20151;-44
2023/05/01 00:39:08;;;;;;;8.13;4.20;;;7.60;99.90;;;;;;5061740;28;20469;-47
2023/05/01 00:41:35;;;;;;;10.13;4.78;;;8.50;99.90;;;;;;5062682;28;20040;-49
2023/05/01 00:44:00;;;;;;;8.32;4.40;;;7.40;99.90;;;;;;5043948;28;20810;-47
2023/05/01 00:46:28;;;;;;;9.38;4.32;;;7.30;99.90;;;;;;5062002;28;20036;-49
2023/05/01 00:48:55;;;;;;;9.98;4.30;;;7.30;99.90;;;;;;5061832;28;20407;-50
2023/05/01 00:51:21;;;;;;;9.77;4.22;;;7.50;99.90;;;;;;5061815;28;20060;-47
2023/05/01 00:53:47;;;;;;;11.27;4.80;;;8.80;99.90;;;;;;5062083;28;20049;-45
2023/05/01 00:56:14;;;;;;;8.63;4.82;;;7.80;99.90;;;;;;5062202;28;20509;-45
2023/05/01 00:58:40;;;;;;;9.02;4.97;;;7.40;99.90;;;;;;5061370;28;20453;-47
2023/05/01 01:01:09;;;;;;;11.25;4.40;;;7.70;99.90;;;;;;5061380;28;20052;-46
2023/05/01 01:03:35;;;;;;;9.07;4.22;;;7.30;99.90;;;;;;5061577;28;20303;-46
2023/05/01 01:06:04;;;;;;;11.40;4.53;;;7.20;99.90;;;;;;5061079;28;20041;-51
2023/05/01 01:08:40;;;;;;;10.75;4.88;;;7.30;99.90;;;;;;5061045;28;20040;-50
2023/05/01 01:11:22;;;;;;;9.02;4.82;;;7.20;99.90;;;;;;5061356;28;20040;-47
2023/05/01 01:14:02;;;;;;;9.10;4.80;;;8.10;99.90;;;;;;5061767;28;20044;-49
2023/05/01 01:16:42;;;;;;;8.60;5.13;;;7.10;99.90;;;;;;5062115;28;20045;-47
2023/05/01 01:19:26;;;;;;;8.77;4.75;;;7.20;99.90;;;;;;5060698;28;20040;-47
2023/05/01 01:21:57;;;;;;;13.05;5.05;;;7.10;99.90;;;;;;5061346;28;20502;-45
2023/05/01 01:24:46;;;;;;;10.38;5.03;;;7.00;99.90;;;;;;5060659;28;20097;-48
2023/05/01 01:27:39;;;;;;;12.30;5.22;;;7.30;99.90;;;;;;5060577;28;20051;-49
2023/05/01 01:30:22;;;;;;;10.50;4.82;;;8.40;99.90;;;;;;5060738;28;20052;-44
2023/05/01 01:33:08;;;;;;;9.88;4.72;;;7.10;99.90;;;;;;5059623;28;20058;-46
2023/05/01 01:35:35;;;;;;;8.65;4.78;;;7.00;99.90;;;;;;5060411;28;20055;-46
2023/05/01 01:38:08;;;;;;;14.07;5.20;;;7.10;99.90;;;;;;5060236;28;20048;-48
2023/05/01 01:40:56;;;;;;;12.10;5.88;;;7.00;99.90;;;;;;5060039;28;20446;-47
2023/05/01 01:43:25;;;;;;;10.43;4.90;;;7.00;99.90;;;;;;5059989;28;20040;-44
2023/05/01 01:45:58;;;;;;;9.88;5.00;;;8.60;99.90;;;;;;5060707;28;20550;-44
2023/05/01 01:48:29;;;;;;;8.98;5.60;;;7.60;99.90;;;;;;5060670;28;20049;-44
2023/05/01 01:50:58;;;;;;;10.13;5.07;;;6.80;99.90;;;;;;5060556;28;20056;-44
2023/05/01 01:53:27;;;;;;;13.60;5.35;;;6.80;99.90;;;;;;5042291;28;20044;-49
2023/05/01 01:55:56;;;;;;;12.43;5.22;;;6.80;99.90;;;;;;5060257;28;20076;-46
2023/05/01 01:58:25;;;;;;;10.20;5.25;;;6.40;99.90;;;;;;5059865;28;20056;-44
2023/05/01 02:00:52;;;;;;;12.05;6.45;;;7.10;99.90;;;;;;5060067;28;20052;-46
2023/05/01 02:03:20;;;;;;;9.00;5.28;;;7.70;99.90;;;;;;5042209;28;20055;-45
2023/05/01 02:05:48;;;;;;;10.93;5.03;;;6.40;99.90;;;;;;5060309;28;20243;-44
2023/05/01 02:08:15;;;;;;;11.95;5.53;;;6.30;99.90;;;;;;5059640;28;20040;-46
2023/05/01 02:10:43;;;;;;;11.27;5.20;;;6.30;99.90;;;;;;5060105;28;20043;-44
2023/05/01 02:13:11;;;;;;;13.48;5.53;;;6.30;99.90;;;;;;5058838;28;20041;-46
2023/05/01 02:15:38;;;;;;;11.95;5.35;;;6.20;99.90;;;;;;5060456;28;20063;-48
2023/05/01 02:18:05;;;;;;;11.20;5.30;;;6.20;99.90;;;;;;5041589;28;20106;-48
2023/05/01 02:20:32;;;;;;;9.32;4.97;;;4.40;99.90;;;;;;5059781;28;20530;-48
2023/05/01 02:22:58;;;;;;;8.10;5.20;;;6.20;99.90;;;;;;5058999;28;20572;-48
2023/05/01 02:25:29;;;;;;;11.10;5.68;;;6.40;99.90;;;;;;5058913;28;20521;-44
2023/05/01 02:27:59;;;;;;;11.30;5.43;;;6.20;99.90;;;;;;5059148;28;20056;-45
2023/05/01 02:30:25;;;;;;;9.65;5.28;;;8.20;99.90;;;;;;5059442;28;20052;-45
2023/05/01 02:32:51;;;;;;;8.68;5.50;;;6.50;99.90;;;;;;5059341;28;20045;-44
2023/05/01 02:35:16;;;;;;;10.98;5.22;;;6.10;99.90;;;;;;5058590;28;20056;-52
2023/05/01 02:37:43;;;;;;;10.60;5.50;;;7.20;99.90;;;;;;5041468;28;20047;-45
2023/05/01 02:40:13;;;;;;;12.73;5.57;;;6.10;99.90;;;;;;5059306;28;20040;-44
2023/05/01 02:42:44;;;;;;;12.55;6.55;;;5.90;99.90;;;;;;5025209;28;20064;-44
2023/05/01 02:45:18;;;;;;;8.30;5.40;;;6.20;99.90;;;;;;5058729;28;20039;-44
2023/05/01 02:47:46;;;;;;;11.77;5.90;;;6.00;99.90;;;;;;5041505;28;20085;-44
2023/05/01 02:50:14;;;;;;;13.20;5.60;;;6.00;99.90;;;;;;5040050;28;20406;-44
2023/05/01 02:52:40;;;;;;;10.45;5.80;;;6.10;99.90;;;;;;5059223;28;20601;-44
2023/05/01 02:55:07;;;;;;;13.15;5.47;;;6.10;99.90;;;;;;5059269;28;20062;-46
2023/05/01 02:57:33;;;;;;;10.45;5.45;;;6.10;99.90;;;;;;5058917;28;20131;-46
2023/05/01 02:59:59;;;;;;;10.48;6.20;;;6.00;99.90;;;;;;5041022;28;20492;-45
2023/05/01 03:02:25;;;;;;;12.50;5.82;;;6.10;99.90;;;;;;5059521;28;20048;-45
2023/05/01 03:04:51;;;;;;;11.18;5.82;;;5.90;99.90;;;;;;5059025;28;20059;-48
2023/05/01 03:07:16;;;;;;;10.27;5.15;;;6.10;99.90;;;;;;5059327;28;20508;-45
2023/05/01 03:09:42;;;;;;;14.30;5.78;;;5.90;99.90;;;;;;5041438;28;20044;-44
2023/05/01 03:12:08;;;;;;;9.82;6.43;;;6.10;99.90;;;;;;5059134;28;20055;-44
2023/05/01 03:14:34;;;;;;;11.00;5.18;;;5.80;99.90;;;;;;5041499;28;20082;-46
2023/05/01 03:17:00;;;;;;;8.80;5.22;;;5.90;99.90;;;;;;5059330;28;20113;-45
2023/05/01 03:19:26;;;;;;;10.55;5.80;;;5.90;99.90;;;;;;5041032;28;20621;-44
2023/05/01 03:21:51;;;;;;;8.85;5.70;;;5.70;99.90;;;;;;5041200;28;20045;-44
2023/05/01 03:24:17;;;;;;;9.63;5.65;;;5.60;99.90;;;;;;5059184;28;20048;-48
2023/05/01 03:26:43;;;;;;;8.48;4.88;;;5.70;99.90;;;;;;5058963;28;20052;-45
2023/05/01 03:29:09;;;;;;;11.13;6.20;;;5.50;99.90;;;;;;5058991;28;20044;-46
2023/05/01 03:31:34;;;;;;;10.98;5.57;;;5.30;99.90;;;;;;5059623;28;20116;-48
2023/05/01 03:34:00;;;;;;;11.43;6.25;;;5.30;99.90;;;;;;5063217;28;20067;-46
2023/05/01 03:36:27;;;;;;;10.80;5.93;;;5.30;99.90;;;;;;5063217;28;20051;-47
2023/05/01 03:38:53;;;;;;;10.68;6.18;;;5.20;99.90;;;;;;5062542;28;20961;-46
2023/05/01 03:41:18;;;;;;;10.38;6.00;;;5.00;99.90;;;;;;5062567;28;20078;-46
2023/05/01 03:43:44;;;;;;;18.50;6.10;;;4.90;99.90;;;;;;5062323;28;20048;-48
2023/05/01 03:46:10;;;;;;;12.98;6.20;;;4.90;99.90;;;;;;5062237;28;20704;-44
2023/05/01 03:48:35;;;;;;;12.43;6.15;;;5.00;99.90;;;;;;5062680;28;20481;-49
2023/05/01 03:51:01;;;;;;;16.23;6.40;;;5.00;99.90;;;;;;5062255;28;20048;-47
2023/05/01 03:53:27;;;;;;;10.45;6.55;;;5.10;99.90;;;;;;5044326;28;20061;-50
2023/05/01 03:55:53;;;;;;;9.85;5.60;;;5.20;99.90;;;;;;5061897;28;20065;-44
2023/05/01 03:58:20;;;;;;;13.43;6.28;;;5.00;99.90;;;;;;5061126;28;20044;-49
2023/05/01 04:00:46;;;;;;;14.75;7.50;;;5.10;99.90;;;;;;5061489;28;20060;-49
2023/05/01 04:03:12;;;;;;;14.13;6.80;;;4.90;99.90;;;;;;5062320;28;20041;-48
2023/05/01 04:05:38;;;;;;;15.52;7.03;;;5.00;99.90;;;;;;5061470;28;20072;-45
2023/05/01 04:08:04;;;;;;;11.43;6.15;;;4.90;99.90;;;;;;5043836;28;20040;-48
2023/05/01 04:10:30;;;;;;;10.43;7.10;;;4.90;99.90;;;;;;5061750;28;20422;-48
2023/05/01 04:12:56;;;;;;;10.98;6.75;;;4.90;99.90;;;;;;5043908;28;20147;-48
2023/05/01 04:15:22;;;;;;;12.57;6.97;;;;;;;;;;5061559;28;20547;-47
2023/05/01 04:17:48;;;;;;;12.35;6.57;;;4.90;99.90;;;;;;5061874;28;20041;-50
2023/05/01 04:20:15;;;;;;;10.30;5.75;;;;;;;;;;5061352;28;20555;-45
2023/05/01 04:22:41;;;;;;;10.35;5.80;;;5.00;99.90;;;;;;5061911;28;20040;-44
2023/05/01 04:25:07;;;;;;;9.82;5.85;;;5.00;99.90;;;;;;5061565;28;20497;-44
2023/05/01 04:27:33;;;;;;;11.57;7.15;;;;;;;;;;5044107;28;20072;-48
2023/05/01 04:29:59;;;;;;;14.00;6.47;;;5.00;99.90;;;;;;5062193;28;20051;-45
2023/05/01 04:32:25;;;;;;;10.13;6.43;;;;;;;;;;5062285;28;20040;-45
2023/05/01 04:34:51;;;;;;;11.30;6.35;;;5.10;99.90;;;;;;5061923;28;20043;-44
2023/05/01 04:37:17;;;;;;;14.10;6.47;;;5.30;99.90;;;;;;5062122;28;20123;-47
2023/05/01 04:39:43;;;;;;;13.20;6.47;;;5.20;99.90;;;;;;5062355;28;20507;-47
2023/05/01 04:42:09;;;;;;;12.10;6.25;;;5.20;99.90;;;;;;5061856;28;20123;-44
2023/05/01 04:44:36;;;;;;;12.30;6.88;;;5.40;99.90;;;;;;5060702;28;20127;-46
2023/05/01 04:47:03;;;;;;;16.00;8.43;;;5.30;99.90;;;;;;5062285;28;20340;-46
2023/05/01 04:49:28;;;;;;;13.63;6.88;;;5.60;99.90;;;;;;5061956;28;20220;-46
2023/05/01 04:51:54;;;;;;;12.93;7.35;;;5.50;99.90;;;;;;5061687;28;20459;-48
2023/05/01 04:54:20;;;;;;;12.88;6.55;;;5.70;99.90;;;;;;5061585;28;20128;-47
2023/05/01 04:56:46;;;;;;;14.95;7.10;;;5.90;99.90;;;;;;5061387;28;20409;-45
2023/05/01 04:59:11;;;;;;;9.70;6.70;;;5.90;99.90;;;;;;5061381;28;20060;-45
2023/05/01 05:01:37;;;;;;;13.63;8.35;;;6.20;99.90;;;;;;5061460;28;20464;-45
2023/05/01 05:04:04;;;;;;;11.60;6.30;;;6.50;99.90;;;;;;5060978;28;20052;-47
2023/05/01 05:06:30;;;;;;;10.07;6.63;;;6.70;99.90;;;;;;5061215;28;20505;-48
2023/05/01 05:08:56;;;;;;;14.57;7.55;;;6.80;99.90;;;;;;5061191;28;20489;-45
2023/05/01 05:11:22;;;;;;;12.70;6.43;;;7.00;99.90;;;;;;5060147;28;20045;-45
2023/05/01 05:13:48;;;;;;;11.00;5.70;;;8.60;99.90;;;;;;5061198;28;20051;-47
2023/05/01 05:16:14;;;;;;;14.32;6.45;;;7.30;99.90;;;;;;5061063;28;20036;-51
2023/05/01 05:18:39;;;;;;;13.13;6.82;;;7.30;99.90;;;;;;5061318;28;20091;-47
2023/05/01 05:21:06;;;;;;;11.00;6.13;;;7.20;99.90;;;;;;5060460;28;20044;-47
2023/05/01 05:23:32;;;;;;;9.27;6.05;;;7.30;99.90;;;;;;5042873;28;20497;-50
2023/05/01 05:26:00;;;;;;;12.25;6.90;;;7.40;99.90;;;;;;5042575;28;20097;-46
2023/05/01 05:28:29;;;;;;;13.05;6.65;;;7.60;99.90;;;;;;5060957;28;20524;-48
2023/05/01 05:30:56;;;;;;;11.45;6.10;;;9.90;99.90;;;;;;5060965;28;20124;-47
2023/05/01 05:33:23;;;;;;;10.40;6.55;;;7.90;99.90;;;;;;5061154;28;20045;-47
2023/05/01 05:35:50;;;;;;;13.20;6.28;;;8.00;99.90;;;;;;5059974;28;20060;-44
2023/05/01 05:38:16;;;;;;;9.30;5.97;;;8.00;99.90;;;;;;5060970;28;20044;-45
2023/05/01 05:40:41;;;;;;;9.10;6.40;;;8.10;99.90;;;;;;5060592;28;20047;-48
2023/05/01 05:43:08;;;;;;;10.63;5.88;;;8.30;99.90;;;;;;5061359;28;20135;-47
2023/05/01 05:45:34;;;;;;;11.45;6.15;;;8.20;99.90;;;;;;5061308;28;20125;-46
2023/05/01 05:48:00;;;;;;;9.23;5.53;;;8.20;99.90;;;;;;5061339;28;20164;-46
2023/05/01 05:50:26;;;;;;;10.27;5.70;;;8.20;99.90;;;;;;5042550;28;20123;-47
2023/05/01 05:52:52;;;;;;;10.32;6.28;;;8.40;99.90;;;;;;5061079;28;20052;-46
2023/05/01 05:55:18;;;;;;;12.32;6.13;;;8.00;99.90;;;;;;5060154;28;20051;-46
2023/05/01 05:57:43;;;;;;;15.52;7.85;;;8.50;99.90;;;;;;5060543;28;20051;-47
2023/05/01 06:00:10;;;;;;;12.85;7.70;;;8.60;99.90;;;;;;5042111;28;20474;-47
2023/05/01 06:02:35;;;;;;;12.35;6.47;;;8.80;99.90;;;;;;5060858;28;20334;-47
2023/05/01 06:05:02;;;;;;;15.25;6.35;;;9.10;99.90;;;;;;5059960;28;20496;-47
2023/05/01 06:07:28;;;;;;;11.05;6.00;;;9.40;99.90;;;;;;5043020;28;20044;-46
2023/05/01 06:09:55;;;;;;;10.05;6.22;;;9.90;99.90;;;;;;5060711;28;20562;-47
2023/05/01 06:12:20;;;;;;;15.32;7.00;;;10.50;99.90;;;;;;5060369;28;20074;-47
2023/05/01 06:14:46;;;;;;;12.73;6.10;;;10.60;99.90;;;;;;5060591;28;20497;-47
2023/05/01 06:17:13;;;;;;;15.90;6.05;;;10.90;99.90;;;;;;5060793;28;20505;-46
2023/05/01 06:19:38;;;;;;;14.73;6.38;;;11.00;99.90;;;;;;5041744;28;20049;-50
2023/05/01 06:22:06;;;;;;;8.93;5.53;;;11.00;99.90;;;;;;5060394;28;20045;-48
2023/05/01 06:24:32;;;;;;;16.10;7.00;;;11.20;99.90;;;;;;5060136;28;20458;-48
2023/05/01 06:26:58;;;;;;;9.75;5.70;;;11.40;99.90;;;;;;5060021;28;20133;-50
2023/05/01 06:29:23;;;;;;;10.50;5.38;;;12.90;99.90;;;;;;5059604;28;20125;-47
2023/05/01 06:31:49;;;;;;;13.65;5.85;;;12.10;99.90;;;;;;5041412;28;20060;-46
2023/05/01 06:34:15;;;;;;;11.88;5.30;;;12.30;99.90;;;;;;5040701;28;20041;-46
2023/05/01 06:36:41;;;;;;;12.65;5.40;;;11.00;99.90;;;;;;5041850;28;20048;-48
2023/05/01 06:39:06;;;;;;;9.85;5.45;;;12.70;99.90;;;;;;5059300;28;20048;-47
2023/05/01 06:41:33;;;;;;;10.55;5.38;;;14.20;99.90;;;;;;5060156;28;20040;-47
2023/05/01 06:43:59;;;;;;;12.48;5.40;;;12.90;99.90;;;;;;5059637;28;20119;-47
2023/05/01 06:46:24;;;;;;;10.30;5.35;;;13.40;99.90;;;;;;5059813;28;20769;-50
2023/05/01 06:48:50;;;;;;;7.53;4.68;;;14.20;99.90;;;;;;5059108;28;20047;-47
2023/05/01 06:51:16;;;;;;;9.90;4.63;;;15.40;99.90;;;;;;5059874;28;20201;-51
2023/05/01 06:53:42;;;;;;;13.18;4.80;;;16.20;99.90;;;;;;5059288;28;20082;-52
2023/05/01 06:56:09;;;;;;;12.77;4.55;;;17.00;99.90;;;;;;5059441;28;20227;-47
2023/05/01 06:58:34;;;;;;;8.27;3.97;;;19.30;99.90;;;;;;5059453;28;20118;-49
2023/05/01 07:01:00;;;;;;;10.45;4.45;;;17.60;99.90;;;;;;5041311;28;20045;-49
2023/05/01 07:03:29;;;;;;;9.70;4.68;;;18.10;99.90;;;;;;5059519;28;20043;-50
2023/05/01 07:05:55;;;;;;;9.40;4.57;;;17.80;99.90;;;;;;5058997;28;20059;-51
2023/05/01 07:08:21;;;;;;;10.43;4.75;;;17.90;99.90;;;;;;5059340;28;20036;-49
2023/05/01 07:10:48;;;;;;;9.23;4.63;;;17.80;99.90;;;;;;5059587;28;20574;-51
2023/05/01 07:13:15;;;;;;;9.40;5.35;;;17.70;99.90;;;;;;5040867;28;20580;-48
2023/05/01 07:15:41;;;;;;;12.05;5.22;;;17.90;99.90;;;;;;5041687;28;20155;-53
2023/05/01 07:18:08;;;;;;;14.07;4.70;;;17.90;99.90;;;;;;5059531;28;20265;-49
2023/05/01 07:20:34;;;;;;;10.57;4.80;;;18.00;99.90;;;;;;5059119;28;20584;-52
2023/05/01 07:23:00;;;;;;;7.60;4.00;;;18.70;99.90;;;;;;5059509;28;20064;-50
2023/05/01 07:25:26;;;;;;;13.50;4.38;;;18.90;99.90;;;;;;5058834;28;20428;-48
2023/05/01 07:27:51;;;;;;;10.18;4.43;;;19.50;99.90;;;;;;5059352;28;20048;-49
2023/05/01 07:30:17;;;;;;;7.97;4.03;;;20.10;99.90;;;;;;5059775;28;20052;-50
2023/05/01 07:32:43;;;;;;;10.38;4.50;;;20.80;99.90;;;;;;5059542;28;20120;-48
2023/05/01 07:35:10;;;;;;;10.23;3.88;;;20.60;99.90;;;;;;5058841;28;20041;-50
2023/05/01 07:37:35;;;;;;;10.60;3.97;;;20.70;99.90;;;;;;5059294;28;20101;-50
2023/05/01 07:40:01;;;;;;;8.23;3.58;;;20.80;99.90;;;;;;5040583;28;20112;-51
2023/05/01 07:42:27;;;;;;;10.10;4.47;;;20.50;99.90;;;;;;5040826;28;20513;-51
2023/05/01 07:44:53;;;;;;;7.85;3.63;;;20.20;99.90;;;;;;5058930;28;20075;-53
2023/05/01 07:47:18;;;;;;;7.72;3.90;;;19.90;99.90;;;;;;5059229;28;20041;-50
2023/05/01 07:49:44;;;;;;;8.82;3.63;;;19.40;99.90;;;;;;5058489;28;20049;-50
2023/05/01 07:52:10;;;;;;;8.00;3.70;;;19.50;99.90;;;;;;5040625;28;20041;-51
2023/05/01 07:54:36;;;;;;;9.73;4.07;;;19.20;99.90;;;;;;5059136;28;20074;-50
2023/05/01 07:57:02;;;;;;;9.02;3.90;;;18.70;99.90;;;;;;5059330;28;20040;-50
2023/05/01 07:59:28;;;;;;;10.10;3.70;;;18.50;99.90;;;;;;5058879;28;20060;-50
2023/05/01 08:01:54;;;;;;;7.57;4.03;;;18.40;99.90;;;;;;5041080;28;20052;-48
2023/05/01 08:04:21;;;;;;;9.07;4.07;;;18.10;99.90;;;;;;5057852;28;20988;-50
2023/05/01 08:06:49;;;;;;;7.88;4.15;;;18.10;99.90;;;;;;5058861;28;20094;-50
2023/05/01 08:09:15;;;;;;;11.70;4.13;;;17.90;99.90;;;;;;5058942;28;20055;-50
2023/05/01 08:11:41;;;;;;;8.00;3.70;;;17.70;99.90;;;;;;5058996;28;20052;-51
2023/05/01 08:14:07;;;;;;;8.05;3.72;;;17.80;99.90;;;;;;5058616;28;20153;-50
2023/05/01 08:16:34;;;;;;;7.70;3.40;;;17.50;99.90;;;;;;5058823;28;20101;-51
2023/05/01 08:19:00;;;;;;;7.43;3.63;;;17.50;99.90;;;;;;5060650;28;20048;-51
2023/05/01 08:21:25;;;;;;;10.02;3.90;;;17.40;99.90;;;;;;5062413;28;20613;-50
2023/05/01 08:23:54;;;;;;;6.85;3.15;;;17.70;99.90;;;;;;5062022;28;20048;-50
2023/05/01 08:26:20;;;;;;;10.43;4.22;;;17.70;99.90;;;;;;5061659;28;20066;-51
2023/05/01 08:28:46;;;;;;;9.38;4.38;;;18.30;99.90;;;;;;5044028;28;20048;-51
2023/05/01 08:31:12;;;;;;;10.05;4.15;;;18.60;99.90;;;;;;5061713;28;20052;-52
2023/05/01 08:33:40;;;;;;;9.52;3.85;;;18.70;99.90;;;;;;5043822;28;20055;-50
2023/05/01 08:36:09;;;;;;;11.43;4.20;;;18.90;99.90;;;;;;5061754;28;20075;-51
2023/05/01 08:38:35;;;;;;;7.72;3.70;;;18.90;99.90;;;;;;5043977;28;20113;-51
2023/05/01 08:41:02;;;;;;;7.72;3.60;;;18.60;99.90;;;;;;5061806;28;20049;-50
2023/05/01 08:43:31;;;;;;;10.93;4.35;;;18.50;99.90;;;;;;5044094;28;20044;-50
2023/05/01 08:46:01;;;;;;;11.13;3.70;;;18.50;99.90;;;;;;5061866;28;20051;-50
2023/05/01 08:48:28;;;;;;;6.40;3.50;;;19.60;99.90;;;;;;5062149;28;20036;-52
2023/05/01 08:50:58;;;;;;;11.38;3.88;;;18.40;99.90;;;;;;5061943;28;20048;-49
2023/05/01 08:53:25;;;;;;;9.85;3.97;;;18.40;99.90;;;;;;5062532;28;20052;-51
2023/05/01 08:55:52;;;;;;;11.70;4.32;;;18.30;99.90;;;;;;5044240;28;20059;-51
2023/05/01 08:58:20;;;;;;;7.75;3.70;;;18.30;99.90;;;;;;5061658;28;20067;-51
2023/05/01 09:00:46;;;;;;;7.78;4.00;;;18.40;99.90;;;;;;5044697;28;20298;-49
2023/05/01 09:03:13;;;;;;;10.30;3.33;;;18.60;99.90;;;;;;5062201;28;20423;-52
2023/05/01 09:05:39;;;;;;;9.70;3.65;;;18.50;99.90;;;;;;5061486;28;21159;-53
2023/05/01 09:08:05;;;;;;;10.48;4.00;;;18.50;99.90;;;;;;5061794;28;20036;-49
2023/05/01 09:10:32;;;;;;;11.65;3.35;;;18.60;99.90;;;;;;5062620;28;20432;-52
2023/05/01 09:13:05;;;;;;;14.15;4.30;;;18.30;99.90;;;;;;5061809;28;20637;-52
2023/05/01 09:15:32;;;;;;;9.02;3.83;;;19.00;99.90;;;;;;5062432;28;20116;-50
2023/05/01 09:18:00;;;;;;;9.35;3.90;;;19.20;99.90;;;;;;5060922;28;20040;-53
2023/05/01 09:20:27;;;;;;;8.38;3.63;;;19.40;99.90;;;;;;5060756;28;20050;-51
2023/05/01 09:22:55;;;;;;;7.55;3.40;;;19.60;99.90;;;;;;5043446;28;20048;-49
2023/05/01 09:25:21;;;;;;;8.07;3.58;;;19.70;99.90;;;;;;5060776;28;20052;-49
2023/05/01 09:27:47;;;;;;;7.30;3.33;;;19.70;99.90;;;;;;5043140;28;20071;-50
2023/05/01 09:30:36;;;;;;;7.38;2.85;;;19.30;99.90;;;;;;5060063;28;20456;-50
2023/05/01 09:33:09;;;;;;;6.93;2.75;;;19.20;99.90;;;;;;5060973;28;20049;-53
2023/05/01 09:35:54;;;;;;;5.93;2.97;;;19.20;99.90;;;;;;5060906;28;20212;-51
2023/05/01 09:38:23;;;;;;;6.70;2.60;;;19.00;99.90;;;;;;5043012;28;20316;-49
2023/05/01 09:40:51;;;;;;;8.10;3.20;;;19.30;99.90;;;;;;5025569;28;20109;-46
2023/05/01 09:43:28;;;;;;;9.40;3.03;;;19.30;99.90;;;;;;5060761;28;20474;-51
2023/05/01 09:46:08;;;;;;;7.38;3.15;;;19.40;99.90;;;;;;5060868;28;20072;-46
2023/05/01 09:48:34;;;;;;;7.00;3.00;;;19.60;99.90;;;;;;5060516;28;20131;-47
2023/05/01 09:51:00;;;;;;;8.02;2.70;;;19.20;99.90;;;;;;5059722;28;20476;-46
2023/05/01 09:53:39;;;;;;;11.52;3.58;;;19.30;99.90;;;;;;5060441;28;20145;-45
2023/05/01 09:56:06;;;;;;;7.43;3.13;;;18.80;99.90;;;;;;5060653;28;20048;-45
2023/05/01 09:58:32;;;;;;;8.18;3.08;;;19.20;99.90;;;;;;5059935;28;20186;-48
2023/05/01 10:00:58;;;;;;;7.97;2.95;;;19.40;99.90;;;;;;5042182;28;20134;-46
2023/05/01 10:03:23;;;;;;;6.90;3.20;;;19.50;99.90;;;;;;5060348;28;20123;-46
2023/05/01 10:05:49;;;;;;;6.75;2.83;;;19.70;99.90;;;;;;5059596;28;20712;-46
2023/05/01 10:08:15;;;;;;;11.70;3.58;;;19.80;99.90;;;;;;5060063;28;20561;-48
2023/05/01 10:10:45;;;;;;;7.38;2.95;;;19.60;99.90;;;;;;5060807;28;20044;-50
2023/05/01 10:13:16;;;;;;;7.93;2.72;;;19.90;99.90;;;;;;5043578;28;20067;-48
2023/05/01 10:15:49;;;;;;;9.57;3.15;;;19.90;99.90;;;;;;5060868;28;20779;-48
2023/05/01 10:18:17;;;;;;;4.55;1.88;;;19.80;99.90;;;;;;5060494;28;20052;-50
2023/05/01 10:20:42;;;;;;;6.60;2.20;;;20.10;99.90;;;;;;5060035;28;20057;-47
2023/05/01 10:23:09;;;;;;;5.25;2.38;;;20.30;99.90;;;;;;5060404;28;20040;-46
2023/05/01 10:25:36;;;;;;;6.00;2.17;;;20.30;99.90;;;;;;5059971;28;20045;-49
2023/05/01 10:28:03;;;;;;;7.72;2.10;;;20.40;99.90;;;;;;5060404;28;20045;-48
2023/05/01 10:30:30;;;;;;;6.20;2.13;;;20.70;99.90;;;;;;5060177;28;20089;-49
2023/05/01 10:32:57;;;;;;;5.00;1.75;;;20.50;99.90;;;;;;5060045;28;20119;-46
2023/05/01 10:35:38;;;;;;;5.13;1.90;;;20.50;99.90;;;;;;5059194;28;20035;-46
2023/05/01 10:38:12;;;;;;;5.00;1.75;;;20.70;99.90;;;;;;5059497;28;20040;-48
2023/05/01 10:40:38;;;;;;;5.40;1.70;;;20.70;99.90;;;;;;5059316;28;20435;-45
2023/05/01 10:43:31;;;;;;;4.25;1.73;;;20.50;99.90;;;;;;5059853;28;20045;-49
2023/05/01 10:46:15;;;;;;;5.47;1.60;;;20.70;99.90;;;;;;5059220;28;20049;-45
2023/05/01 10:48:41;;;;;;;4.45;1.48;;;20.80;99.90;;;;;;5059681;28;20118;-48
2023/05/01 10:51:19;;;;;;;4.90;2.25;;;20.80;99.90;;;;;;5040802;28;20048;-45
2023/05/01 10:53:45;;;;;;;5.18;1.52;;;20.60;99.90;;;;;;5060021;28;20036;-49
2023/05/01 10:56:22;;;;;;;6.88;1.85;;;20.60;99.90;;;;;;5059306;28;20044;-51
2023/05/01 10:58:58;;;;;;;5.10;1.30;;;20.70;99.90;;;;;;5059389;28;20447;-47
2023/05/01 11:01:30;;;;;;;5.97;1.75;;;20.50;99.90;;;;;;5040941;28;20087;-46
2023/05/01 11:03:57;;;;;;;5.93;1.70;;;20.50;99.90;;;;;;5041953;28;20066;-45
2023/05/01 11:06:24;;;;;;;5.90;1.67;;;20.70;99.90;;;;;;5059672;28;20040;-48
2023/05/01 11:08:49;;;;;;;7.10;1.98;;;20.30;99.90;;;;;;5059805;28;20068;-45
2023/05/01 11:11:24;;;;;;;5.82;1.20;;;20.70;99.90;;;;;;5059839;28;20638;-47
2023/05/01 11:13:59;;;;;;;2.80;1.08;;;20.50;99.90;;;;;;5060307;28;20048;-46
2023/05/01 11:16:36;;;;;;;4.55;1.15;;;20.40;99.90;;;;;;5059916;28;20044;-46
2023/05/01 11:19:09;;;;;;;3.92;1.25;;;20.30;99.90;;;;;;5042032;28;20047;-48
2023/05/01 11:21:40;;;;;;;4.68;1.73;;;20.50;99.90;;;;;;5042001;28;20102;-49
2023/05/01 11:24:06;;;;;;;3.10;1.20;;;20.80;99.90;;;;;;5059697;28;20049;-48
2023/05/01 11:26:37;;;;;;;4.88;1.52;;;20.90;99.90;;;;;;5059395;28;20045;-45
2023/05/01 11:29:04;;;;;;;5.70;1.50;;;20.80;99.90;;;;;;5050751;28;20464;-48
2023/05/01 11:31:31;;;;;;;7.05;1.90;;;20.80;99.90;;;;;;5050443;28;20127;-45
2023/05/01 11:33:58;;;;;;;5.25;1.80;;;20.70;99.90;;;;;;5039626;28;20052;-46
2023/05/01 11:36:28;;;;;;;5.47;1.60;;;20.50;99.90;;;;;;5059435;28;20052;-46
2023/05/01 11:38:56;;;;;;;3.88;1.50;;;20.20;99.90;;;;;;5041452;28;20041;-45
2023/05/01 11:41:23;;;;;;;10.65;1.88;;;20.00;99.90;;;;;;5059268;28;20048;-46
2023/05/01 11:43:55;;;;;;;5.15;1.65;;;19.80;99.90;;;;;;5059077;28;20028;-46
2023/05/01 11:46:30;;;;;;;4.85;1.67;;;19.80;99.90;;;;;;5041451;28;20078;-46
2023/05/01 11:49:01;;;;;;;4.97;1.60;;;19.80;99.90;;;;;;5024757;28;20052;-46
2023/05/01 11:51:27;;;;;;;5.80;1.52;;;19.70;99.90;;;;;;5059120;28;20532;-45
2023/05/01 11:54:02;;;;;;;5.25;2.08;;;19.60;99.90;;;;;;5062115;28;20048;-46
2023/05/01 11:56:29;;;;;;;8.88;2.00;;;19.70;99.90;;;;;;5062907;28;20047;-48
2023/05/01 11:58:56;;;;;;;4.38;1.67;;;19.50;99.90;;;;;;5041740;28;20140;-47
2023/05/01 12:01:35;;;;;;;6.70;2.10;;;19.40;99.90;;;;;;5042502;28;20060;-46
2023/05/01 12:04:02;;;;;;;4.22;1.92;;;19.20;99.90;;;;;;5042351;28;20041;-47
2023/05/01 12:06:45;;;;;;;9.02;2.33;;;18.80;99.90;;;;;;5042437;28;20370;-46
2023/05/01 12:09:11;;;;;;;6.25;2.20;;;18.90;99.90;;;;;;5042173;28;20136;-46
2023/05/01 12:11:38;;;;;;;6.43;2.05;;;18.60;99.90;;;;;;5039600;28;20064;-46
2023/05/01 12:14:04;;;;;;;5.55;1.75;;;18.50;99.90;;;;;;5041031;28;20106;-46
2023/05/01 12:16:31;;;;;;;6.97;2.45;;;18.60;99.90;;;;;;5041322;28;20573;-47
2023/05/01 12:18:57;;;;;;;7.90;2.00;;;18.70;99.90;;;;;;5041350;28;20047;-46
2023/05/01 12:21:24;;;;;;;5.53;1.80;;;18.90;99.90;;;;;;5041935;28;21338;-45
2023/05/01 12:23:51;;;;;;;5.75;1.92;;;18.60;99.90;;;;;;5042092;28;20110;-47
2023/05/01 12:26:18;;;;;;;3.95;2.00;;;17.50;99.90;;;;;;5041676;28;20787;-48
2023/05/01 12:28:56;;;;;;;5.60;2.15;;;18.90;99.90;;;;;;5042468;28;20081;-47
2023/05/01 12:31:23;;;;;;;6.53;2.20;;;17.50;99.90;;;;;;5040413;28;20077;-46
2023/05/01 12:33:57;;;;;;;4.40;1.90;;;19.20;99.90;;;;;;5041467;28;20053;-46
2023/05/01 12:36:25;;;;;;;6.72;2.20;;;19.20;99.90;;;;;;5042101;28;20151;-46
2023/05/01 12:39:03;;;;;;;6.70;2.10;;;19.10;99.90;;;;;;5041940;28;20497;-45
2023/05/01 12:41:34;;;;;;;5.32;2.28;;;19.20;99.90;;;;;;5040402;28;20061;-48
2023/05/01 12:44:00;;;;;;;7.93;2.33;;;19.00;99.90;;;;;;5041302;28;20124;-46
2023/05/01 12:46:26;;;;;;;8.05;2.05;;;19.10;99.90;;;;;;5041671;28;20132;-47
2023/05/01 12:48:53;;;;;;;5.45;1.73;;;18.00;99.90;;;;;;5042075;28;20052;-47
2023/05/01 12:51:19;;;;;;;5.15;2.00;;;18.60;99.90;;;;;;5042174;28;20103;-49